Time;durP1;ratioP1;P1;durP2;ratioP2;P2;SDS_P1;SDS_P2;PMS_P1;PMS_P2;Temp;Humidity;BMP_temperature;BMP_pressure;BME280_temperature;BME280_humidity;BME280_pressure;Samples;Min_cycle;Max_cycle;Signal;HPM_P1;HPM_P2
2022/07/17 00:08:16;;;;;;;2.97;1.17;;;;;;;-147.20;100.00;63046.97;31572648;28;20025;-65
2022/07/17 00:23:17;;;;;;;3.05;1.52;;;;;;;-147.20;100.00;63046.97;31570965;28;20032;-63
2022/07/17 00:38:17;;;;;;;3.08;1.30;;;;;;;-147.20;100.00;63046.97;31568034;28;20033;-65
2022/07/17 00:53:18;;;;;;;4.18;1.20;;;;;;;-147.20;100.00;63046.97;31560728;28;20115;-63
2022/07/17 01:08:18;;;;;;;4.68;1.48;;;;;;;-147.20;100.00;63046.97;31559757;28;20056;-62
2022/07/17 01:23:20;;;;;;;4.60;1.63;;;;;;;-147.20;100.00;63046.97;31557800;28;20051;-62
2022/07/17 01:38:20;;;;;;;6.10;1.40;;;;;;;-147.20;100.00;63046.97;31517249;28;1107353;-65
2022/07/17 01:53:21;;;;;;;2.33;1.10;;;;;;;-147.20;100.00;63046.97;31562027;28;20112;-67
2022/07/17 02:08:21;;;;;;;2.85;1.38;;;;;;;-147.20;100.00;63046.97;31560032;28;20033;-68
2022/07/17 02:23:22;;;;;;;1.88;1.13;;;;;;;-147.20;100.00;63046.97;31559708;28;20120;-62
2022/07/17 02:38:22;;;;;;;6.50;1.40;;;;;;;-147.20;100.00;63046.97;31556956;28;20087;-63
2022/07/17 02:53:22;;;;;;;4.03;1.52;;;;;;;-147.20;100.00;63046.97;31556461;28;20098;-62
2022/07/17 03:08:23;;;;;;;2.88;1.20;;;;;;;-147.20;100.00;63046.97;31554624;28;20270;-62
2022/07/17 03:23:23;;;;;;;8.07;1.58;;;;;;;-147.20;100.00;63046.97;31554111;28;20051;-66
2022/07/17 03:38:23;;;;;;;2.90;1.42;;;;;;;-147.20;100.00;63046.97;31552498;28;20398;-68
2022/07/17 03:53:24;;;;;;;2.35;1.15;;;;;;;-147.20;100.00;63046.97;31551044;28;20059;-66
2022/07/17 04:08:24;;;;;;;3.88;1.60;;;;;;;-147.20;100.00;63046.97;31549090;28;20110;-62
2022/07/17 04:23:25;;;;;;;3.33;1.13;;;;;;;-147.20;100.00;63046.97;31555848;28;20068;-62
2022/07/17 04:38:25;;;;;;;3.17;1.15;;;;;;;-147.20;100.00;63046.97;31568175;28;20045;-62
2022/07/17 04:53:26;;;;;;;3.25;1.25;;;;;;;-147.20;100.00;63046.97;31567023;28;20029;-62
2022/07/17 05:08:26;;;;;;;4.13;1.10;;;;;;;-147.20;100.00;63046.97;31565566;28;20067;-61
2022/07/17 05:23:26;;;;;;;3.72;1.10;;;;;;;-147.20;100.00;63046.97;31563400;28;20078;-62
2022/07/17 05:38:27;;;;;;;4.88;2.30;;;;;;;-147.20;100.00;63046.97;31560578;28;20505;-62
2022/07/17 05:53:27;;;;;;;1.98;0.82;;;;;;;-147.20;100.00;63046.97;31560000;28;20025;-66
2022/07/17 06:08:28;;;;;;;6.60;1.50;;;;;;;-147.20;100.00;63046.97;31559132;28;20052;-63
2022/07/17 06:23:28;;;;;;;2.72;1.00;;;;;;;-147.20;100.00;63046.97;31558186;28;20044;-62
2022/07/17 06:38:28;;;;;;;5.43;1.25;;;;;;;-147.20;100.00;63046.97;31555887;28;20045;-62
2022/07/17 06:53:29;;;;;;;2.03;0.82;;;;;;;-147.20;100.00;63046.97;31554137;28;20484;-61
2022/07/17 07:08:29;;;;;;;3.90;1.25;;;;;;;-147.20;100.00;63046.97;31553687;28;20461;-64
2022/07/17 07:23:30;;;;;;;2.35;1.13;;;;;;;-147.20;100.00;63046.97;31550976;28;20443;-63
2022/07/17 07:38:30;;;;;;;7.65;1.42;;;;;;;-147.20;100.00;63046.97;31550111;28;20049;-66
2022/07/17 07:53:30;;;;;;;3.58;0.80;;;;;;;-147.20;100.00;63046.97;31550725;28;20486;-66
2022/07/17 08:08:31;;;;;;;4.80;1.23;;;;;;;-147.20;100.00;63046.97;31570551;28;20032;-62
2022/07/17 08:23:31;;;;;;;3.80;0.80;;;;;;;-147.20;100.00;63046.97;31570274;28;20033;-67
2022/07/17 08:38:31;;;;;;;3.25;1.13;;;;;;;-147.20;100.00;63046.97;31567178;28;20098;-63
2022/07/17 08:53:32;;;;;;;5.17;1.00;;;;;;;-147.20;100.00;63046.97;31566396;28;20032;-66
2022/07/17 09:08:35;;;;;;;2.97;1.10;;;;;;;-147.20;100.00;63046.97;31564680;28;20065;-70
2022/07/17 09:23:35;;;;;;;5.50;0.90;;;;;;;-147.20;100.00;63046.97;31563186;28;20120;-62
2022/07/17 09:38:40;;;;;;;2.28;0.75;;;;;;;-147.20;100.00;63046.97;31560762;28;20514;-62
2022/07/17 09:53:44;;;;;;;6.38;1.13;;;;;;;-147.20;100.00;63046.97;31560902;28;20469;-62
2022/07/17 10:08:44;;;;;;;3.85;0.98;;;;;;;-147.20;100.00;63046.97;31558805;28;20485;-62
2022/07/17 10:24:06;;;;;;;4.95;1.20;;;;;;;-147.20;100.00;63046.97;31555382;28;20102;-63
2022/07/17 10:39:15;;;;;;;4.75;1.27;;;;;;;-147.20;100.00;63046.97;31554579;28;20080;-63
2022/07/17 10:54:15;;;;;;;2.17;0.90;;;;;;;-147.20;100.00;63046.97;31553836;28;20033;-62
2022/07/17 11:09:16;;;;;;;2.72;0.93;;;;;;;-147.20;100.00;63046.97;31553232;28;20162;-62
2022/07/17 11:24:16;;;;;;;3.83;1.02;;;;;;;-147.20;100.00;63046.97;31551989;28;20032;-62
2022/07/17 11:39:18;;;;;;;3.67;0.88;;;;;;;-147.20;100.00;63046.97;31568615;28;20053;-69
2022/07/17 11:54:18;;;;;;;4.10;1.00;;;;;;;-147.20;100.00;63046.97;31571899;28;20095;-61
2022/07/17 12:09:26;;;;;;;3.35;1.15;;;;;;;-147.20;100.00;63046.97;31570491;28;20045;-65
2022/07/17 12:24:33;;;;;;;6.32;1.23;;;;;;;-147.20;100.00;63046.97;31569634;28;20109;-63
2022/07/17 12:39:33;;;;;;;2.72;0.82;;;;;;;-147.20;100.00;63046.97;31566921;28;20438;-65
2022/07/17 12:54:34;;;;;;;5.78;1.00;;;;;;;-147.20;100.00;63046.97;31565094;28;20124;-61
2022/07/17 13:09:36;;;;;;;5.88;1.02;;;;;;;-147.20;100.00;63046.97;31563837;28;20048;-65
2022/07/17 13:24:36;;;;;;;4.47;0.85;;;;;;;-147.20;100.00;63046.97;31562252;28;20032;-64
2022/07/17 13:39:36;;;;;;;3.35;0.70;;;;;;;-147.20;100.00;63046.97;31560416;28;20049;-62
2022/07/17 13:54:37;;;;;;;2.85;0.80;;;;;;;-147.20;100.00;63046.97;31558977;28;20064;-62
2022/07/17 14:09:37;;;;;;;2.15;0.80;;;;;;;-147.20;100.00;63046.97;31558227;28;20033;-63
2022/07/17 14:24:37;;;;;;;2.53;0.82;;;;;;;-147.20;100.00;63046.97;31558136;28;20035;-64
2022/07/17 14:39:38;;;;;;;5.97;1.40;;;;;;;-147.20;100.00;63046.97;31555585;28;20053;-62
2022/07/17 14:54:38;;;;;;;4.93;1.02;;;;;;;-147.20;100.00;63046.97;31555164;28;20381;-64
2022/07/17 15:09:38;;;;;;;;;;;;;;;-147.20;100.00;63046.97;31552170;28;20098;-71
2022/07/17 15:24:39;;;;;;;3.30;1.00;;;;;;;-147.20;100.00;63046.97;31553090;28;20374;-67
2022/07/17 15:39:39;;;;;;;3.13;1.20;;;;;;;-147.20;100.00;63046.97;31550475;28;20175;-69
2022/07/17 15:54:40;;;;;;;5.90;1.60;;;;;;;-147.20;100.00;63046.97;31549630;28;20090;-65
2022/07/17 16:09:41;;;;;;;5.03;1.10;;;;;;;-147.20;100.00;63046.97;31547622;28;20252;-62
2022/07/17 16:24:41;;;;;;;1.97;0.90;;;;;;;-147.20;100.00;63046.97;31561858;28;20172;-65
2022/07/17 16:39:41;;;;;;;3.77;1.03;;;;;;;-147.20;100.00;63046.97;31567181;28;20260;-65
2022/07/17 16:54:42;;;;;;;2.27;1.10;;;;;;;-147.20;100.00;63046.97;31565730;28;20043;-65
2022/07/17 17:09:42;;;;;;;4.27;1.10;;;;;;;-147.20;100.00;63046.97;31564427;28;20047;-65
2022/07/17 17:24:43;;;;;;;3.00;1.00;;;;;;;-147.20;100.00;63046.97;31563669;28;20114;-62
2022/07/17 17:39:43;;;;;;;3.83;1.10;;;;;;;-147.20;100.00;63046.97;31560382;28;20118;-65
2022/07/17 17:54:43;;;;;;;1.37;0.60;;;;;;;-147.20;100.00;63046.97;31560917;28;20086;-62
2022/07/17 18:09:44;;;;;;;4.50;1.00;;;;;;;-147.20;100.00;63046.97;31557962;28;20079;-62
2022/07/17 18:24:44;;;;;;;7.80;2.55;;;;;;;-147.20;100.00;63046.97;31558072;28;20037;-63
2022/07/17 18:39:45;;;;;;;3.03;1.10;;;;;;;-147.20;100.00;63046.97;31555286;28;20084;-64
2022/07/17 18:54:45;;;;;;;4.15;1.05;;;;;;;-147.20;100.00;63046.97;31554791;28;20056;-62
2022/07/17 19:09:45;;;;;;;4.18;1.13;;;;;;;-147.20;100.00;63046.97;31551457;28;20033;-66
2022/07/17 19:24:46;;;;;;;4.95;1.52;;;;;;;-147.20;100.00;63046.97;31551735;28;20032;-62
2022/07/17 19:39:46;;;;;;;3.90;0.93;;;;;;;-147.20;100.00;63046.97;31549665;28;20561;-69
2022/07/17 19:54:46;;;;;;;6.22;1.65;;;;;;;-147.20;100.00;63046.97;31556344;28;20082;-64
2022/07/17 20:09:47;;;;;;;9.88;1.70;;;;;;;-147.20;100.00;63046.97;31569717;28;20466;-66
2022/07/17 20:24:47;;;;;;;5.45;1.65;;;;;;;-147.20;100.00;63046.97;31568965;28;20462;-62
2022/07/17 20:39:48;;;;;;;9.20;2.60;;;;;;;-147.20;100.00;63046.97;31566096;28;20049;-62
2022/07/17 20:54:48;;;;;;;7.32;2.72;;;;;;;-147.20;100.00;63046.97;31566245;28;20116;-62
2022/07/17 21:09:48;;;;;;;9.18;3.72;;;;;;;-147.20;100.00;63046.97;31565330;28;20391;-62
2022/07/17 21:24:49;;;;;;;7.40;2.85;;;;;;;-147.20;100.00;63046.97;31564613;28;20111;-62
2022/07/17 21:39:49;;;;;;;6.45;3.90;;;;;;;-147.20;100.00;63046.97;31561627;28;20053;-62
2022/07/17 21:54:50;;;;;;;8.63;4.30;;;;;;;-147.20;100.00;63046.97;31562100;28;20482;-67
2022/07/17 22:09:50;;;;;;;6.82;3.72;;;;;;;-147.20;100.00;63046.97;31560754;28;20363;-67
2022/07/17 22:24:51;;;;;;;10.32;3.10;;;;;;;-147.20;100.00;63046.97;31558399;28;20033;-62
2022/07/17 22:39:52;;;;;;;11.65;4.43;;;;;;;-147.20;100.00;63046.97;31557530;28;20044;-63
2022/07/17 22:54:52;;;;;;;6.30;3.50;;;;;;;-147.20;100.00;63046.97;31556259;28;20504;-62
2022/07/17 23:09:53;;;;;;;30.98;13.88;;;;;;;-147.20;100.00;63046.97;31555436;28;20583;-62
2022/07/17 23:24:53;;;;;;;19.52;9.15;;;;;;;-147.20;100.00;63046.97;31553108;28;20029;-62
2022/07/17 23:39:53;;;;;;;16.55;7.57;;;;;;;-147.20;100.00;63046.97;31552055;28;20068;-62
2022/07/17 23:54:54;;;;;;;9.13;3.35;;;;;;;-147.20;100.00;63046.97;31551523;28;20036;-62
